sensor_id;sensor_type;location;lat;lon;timestamp;temperature;humidity
22714;DHT22;11524;50.846;4.326;2023-06-22T00:01:58;27.70;48.40
22714;DHT22;11524;50.846;4.326;2023-06-22T00:04:23;27.70;48.70
22714;DHT22;11524;50.846;4.326;2023-06-22T00:06:49;27.60;48.40
22714;DHT22;11524;50.846;4.326;2023-06-22T00:09:15;27.70;48.40
22714;DHT22;11524;50.846;4.326;2023-06-22T00:11:40;27.60;48.10
22714;DHT22;11524;50.846;4.326;2023-06-22T00:14:06;27.60;48.60
22714;DHT22;11524;50.846;4.326;2023-06-22T00:16:32;27.60;48.60
22714;DHT22;11524;50.846;4.326;2023-06-22T00:18:58;27.60;48.10
22714;DHT22;11524;50.846;4.326;2023-06-22T00:21:26;27.60;48.00
22714;DHT22;11524;50.846;4.326;2023-06-22T00:23:52;27.60;48.00
22714;DHT22;11524;50.846;4.326;2023-06-22T00:26:18;27.60;48.10
22714;DHT22;11524;50.846;4.326;2023-06-22T00:28:43;27.60;47.90
22714;DHT22;11524;50.846;4.326;2023-06-22T00:31:09;27.60;47.60
22714;DHT22;11524;50.846;4.326;2023-06-22T00:33:35;27.60;47.80
22714;DHT22;11524;50.846;4.326;2023-06-22T00:36:00;27.60;47.90
22714;DHT22;11524;50.846;4.326;2023-06-22T00:38:28;27.60;48.00
22714;DHT22;11524;50.846;4.326;2023-06-22T00:40:54;27.60;47.90
22714;DHT22;11524;50.846;4.326;2023-06-22T00:43:19;27.60;47.60
22714;DHT22;11524;50.846;4.326;2023-06-22T00:45:45;27.60;47.90
22714;DHT22;11524;50.846;4.326;2023-06-22T00:48:12;27.60;47.80
22714;DHT22;11524;50.846;4.326;2023-06-22T00:50:37;27.60;48.10
22714;DHT22;11524;50.846;4.326;2023-06-22T00:53:05;27.50;48.20
22714;DHT22;11524;50.846;4.326;2023-06-22T00:55:35;27.60;48.30
22714;DHT22;11524;50.846;4.326;2023-06-22T00:58:04;27.60;48.10
22714;DHT22;11524;50.846;4.326;2023-06-22T01:00:33;27.50;48.10
22714;DHT22;11524;50.846;4.326;2023-06-22T01:02:59;27.50;47.80
22714;DHT22;11524;50.846;4.326;2023-06-22T01:05:24;27.50;48.00
22714;DHT22;11524;50.846;4.326;2023-06-22T01:08:16;27.50;48.20
22714;DHT22;11524;50.846;4.326;2023-06-22T01:10:55;27.50;48.10
22714;DHT22;11524;50.846;4.326;2023-06-22T01:13:39;27.50;47.90
22714;DHT22;11524;50.846;4.326;2023-06-22T01:16:14;27.50;48.10
22714;DHT22;11524;50.846;4.326;2023-06-22T01:18:43;27.50;47.90
22714;DHT22;11524;50.846;4.326;2023-06-22T01:21:13;27.50;47.90
22714;DHT22;11524;50.846;4.326;2023-06-22T01:29:12;27.50;47.80
22714;DHT22;11524;50.846;4.326;2023-06-22T01:31:40;27.50;47.80
22714;DHT22;11524;50.846;4.326;2023-06-22T01:34:08;27.50;47.80
22714;DHT22;11524;50.846;4.326;2023-06-22T01:36:35;27.50;47.80
22714;DHT22;11524;50.846;4.326;2023-06-22T01:39:02;27.50;47.80
22714;DHT22;11524;50.846;4.326;2023-06-22T01:41:30;27.50;47.80
22714;DHT22;11524;50.846;4.326;2023-06-22T01:43:56;27.50;47.90
22714;DHT22;11524;50.846;4.326;2023-06-22T01:46:23;27.50;48.10
22714;DHT22;11524;50.846;4.326;2023-06-22T01:48:49;27.40;48.10
22714;DHT22;11524;50.846;4.326;2023-06-22T01:51:16;27.40;48.00
22714;DHT22;11524;50.846;4.326;2023-06-22T01:53:41;27.50;47.90
22714;DHT22;11524;50.846;4.326;2023-06-22T01:56:08;27.50;47.80
22714;DHT22;11524;50.846;4.326;2023-06-22T01:58:36;27.40;48.50
22714;DHT22;11524;50.846;4.326;2023-06-22T02:01:14;27.50;47.60
22714;DHT22;11524;50.846;4.326;2023-06-22T02:03:56;27.40;47.30
22714;DHT22;11524;50.846;4.326;2023-06-22T02:06:31;27.40;47.30
22714;DHT22;11524;50.846;4.326;2023-06-22T02:09:02;27.40;47.50
22714;DHT22;11524;50.846;4.326;2023-06-22T02:11:31;27.40;47.40
22714;DHT22;11524;50.846;4.326;2023-06-22T02:13:58;27.40;47.30
22714;DHT22;11524;50.846;4.326;2023-06-22T02:16:25;27.40;47.30
22714;DHT22;11524;50.846;4.326;2023-06-22T02:18:55;27.40;47.30
22714;DHT22;11524;50.846;4.326;2023-06-22T02:21:23;27.40;47.50
22714;DHT22;11524;50.846;4.326;2023-06-22T02:23:48;27.40;47.30
22714;DHT22;11524;50.846;4.326;2023-06-22T02:26:16;27.40;47.30
22714;DHT22;11524;50.846;4.326;2023-06-22T02:28:42;27.40;47.00
22714;DHT22;11524;50.846;4.326;2023-06-22T02:31:08;27.40;47.10
22714;DHT22;11524;50.846;4.326;2023-06-22T02:33:33;27.40;47.10
22714;DHT22;11524;50.846;4.326;2023-06-22T02:35:59;27.40;47.30
22714;DHT22;11524;50.846;4.326;2023-06-22T02:38:25;27.40;47.30
22714;DHT22;11524;50.846;4.326;2023-06-22T02:40:51;27.40;47.30
22714;DHT22;11524;50.846;4.326;2023-06-22T02:43:17;27.40;47.00
22714;DHT22;11524;50.846;4.326;2023-06-22T02:45:42;27.40;47.20
22714;DHT22;11524;50.846;4.326;2023-06-22T02:48:08;27.40;47.30
22714;DHT22;11524;50.846;4.326;2023-06-22T02:50:34;27.30;47.20
22714;DHT22;11524;50.846;4.326;2023-06-22T02:52:59;27.40;47.10
22714;DHT22;11524;50.846;4.326;2023-06-22T02:55:25;27.30;47.10
22714;DHT22;11524;50.846;4.326;2023-06-22T02:57:50;27.30;46.90
22714;DHT22;11524;50.846;4.326;2023-06-22T03:00:18;27.30;47.30
22714;DHT22;11524;50.846;4.326;2023-06-22T03:02:45;27.30;47.40
22714;DHT22;11524;50.846;4.326;2023-06-22T03:05:12;27.30;47.00
22714;DHT22;11524;50.846;4.326;2023-06-22T03:07:41;27.30;47.20
22714;DHT22;11524;50.846;4.326;2023-06-22T03:10:08;27.30;47.40
22714;DHT22;11524;50.846;4.326;2023-06-22T03:12:35;27.30;47.20
22714;DHT22;11524;50.846;4.326;2023-06-22T03:15:00;27.30;47.40
22714;DHT22;11524;50.846;4.326;2023-06-22T03:17:26;27.30;47.50
22714;DHT22;11524;50.846;4.326;2023-06-22T03:19:52;27.30;47.30
22714;DHT22;11524;50.846;4.326;2023-06-22T03:22:17;27.30;47.60
22714;DHT22;11524;50.846;4.326;2023-06-22T03:24:43;27.30;47.70
22714;DHT22;11524;50.846;4.326;2023-06-22T03:27:08;27.30;47.70
22714;DHT22;11524;50.846;4.326;2023-06-22T03:29:34;27.20;47.60
22714;DHT22;11524;50.846;4.326;2023-06-22T03:31:59;27.20;47.50
22714;DHT22;11524;50.846;4.326;2023-06-22T03:34:25;27.20;47.70
22714;DHT22;11524;50.846;4.326;2023-06-22T03:36:51;27.20;47.60
22714;DHT22;11524;50.846;4.326;2023-06-22T03:39:16;27.20;47.50
22714;DHT22;11524;50.846;4.326;2023-06-22T03:41:42;27.20;47.30
22714;DHT22;11524;50.846;4.326;2023-06-22T03:44:07;27.20;47.60
22714;DHT22;11524;50.846;4.326;2023-06-22T03:46:37;27.20;47.40
22714;DHT22;11524;50.846;4.326;2023-06-22T03:49:03;27.20;47.40
22714;DHT22;11524;50.846;4.326;2023-06-22T03:51:30;27.20;47.50
22714;DHT22;11524;50.846;4.326;2023-06-22T03:53:56;27.20;47.50
22714;DHT22;11524;50.846;4.326;2023-06-22T03:56:21;27.20;47.40
22714;DHT22;11524;50.846;4.326;2023-06-22T03:58:47;27.20;47.50
22714;DHT22;11524;50.846;4.326;2023-06-22T04:01:12;27.20;47.50
22714;DHT22;11524;50.846;4.326;2023-06-22T04:03:38;27.20;47.40
22714;DHT22;11524;50.846;4.326;2023-06-22T04:06:04;27.20;47.30
22714;DHT22;11524;50.846;4.326;2023-06-22T04:08:30;27.20;47.30
22714;DHT22;11524;50.846;4.326;2023-06-22T04:10:55;27.20;47.20
22714;DHT22;11524;50.846;4.326;2023-06-22T04:13:21;27.20;47.40
22714;DHT22;11524;50.846;4.326;2023-06-22T04:15:47;27.20;47.60
22714;DHT22;11524;50.846;4.326;2023-06-22T04:18:12;27.20;47.70
22714;DHT22;11524;50.846;4.326;2023-06-22T04:20:39;27.20;47.80
22714;DHT22;11524;50.846;4.326;2023-06-22T04:23:04;27.20;47.90
22714;DHT22;11524;50.846;4.326;2023-06-22T04:25:30;27.20;48.10
22714;DHT22;11524;50.846;4.326;2023-06-22T04:27:56;27.20;48.10
22714;DHT22;11524;50.846;4.326;2023-06-22T04:30:21;27.20;48.10
22714;DHT22;11524;50.846;4.326;2023-06-22T04:32:47;27.20;48.10
22714;DHT22;11524;50.846;4.326;2023-06-22T04:35:22;27.20;48.80
22714;DHT22;11524;50.846;4.326;2023-06-22T04:37:50;27.20;48.30
22714;DHT22;11524;50.846;4.326;2023-06-22T04:40:22;27.20;48.30
22714;DHT22;11524;50.846;4.326;2023-06-22T04:42:48;27.10;48.20
22714;DHT22;11524;50.846;4.326;2023-06-22T04:45:19;27.10;48.20
22714;DHT22;11524;50.846;4.326;2023-06-22T04:47:45;27.10;48.40
22714;DHT22;11524;50.846;4.326;2023-06-22T04:50:14;27.10;48.40
22714;DHT22;11524;50.846;4.326;2023-06-22T04:52:40;27.10;48.50
22714;DHT22;11524;50.846;4.326;2023-06-22T04:55:06;27.10;48.50
22714;DHT22;11524;50.846;4.326;2023-06-22T04:57:32;27.10;48.80
22714;DHT22;11524;50.846;4.326;2023-06-22T05:00:01;27.10;48.60
22714;DHT22;11524;50.846;4.326;2023-06-22T05:02:27;27.10;48.50
22714;DHT22;11524;50.846;4.326;2023-06-22T05:04:58;27.10;48.50
22714;DHT22;11524;50.846;4.326;2023-06-22T05:07:23;27.10;48.50
22714;DHT22;11524;50.846;4.326;2023-06-22T05:09:51;27.20;48.50
22714;DHT22;11524;50.846;4.326;2023-06-22T05:12:16;27.10;48.40
22714;DHT22;11524;50.846;4.326;2023-06-22T05:14:42;27.20;48.50
22714;DHT22;11524;50.846;4.326;2023-06-22T05:17:07;27.20;48.50
22714;DHT22;11524;50.846;4.326;2023-06-22T05:19:39;27.10;48.40
22714;DHT22;11524;50.846;4.326;2023-06-22T05:22:04;27.20;48.60
22714;DHT22;11524;50.846;4.326;2023-06-22T05:24:31;27.10;48.60
22714;DHT22;11524;50.846;4.326;2023-06-22T05:26:57;27.10;48.70
22714;DHT22;11524;50.846;4.326;2023-06-22T05:29:23;27.20;48.70
22714;DHT22;11524;50.846;4.326;2023-06-22T05:31:49;27.10;48.70
22714;DHT22;11524;50.846;4.326;2023-06-22T05:34:15;27.20;48.90
22714;DHT22;11524;50.846;4.326;2023-06-22T05:36:40;27.20;48.70
22714;DHT22;11524;50.846;4.326;2023-06-22T05:39:13;27.10;48.90
22714;DHT22;11524;50.846;4.326;2023-06-22T05:41:39;27.20;49.00
22714;DHT22;11524;50.846;4.326;2023-06-22T05:44:04;27.20;49.00
22714;DHT22;11524;50.846;4.326;2023-06-22T05:46:30;27.20;49.10
22714;DHT22;11524;50.846;4.326;2023-06-22T05:48:56;27.20;49.10
22714;DHT22;11524;50.846;4.326;2023-06-22T05:51:21;27.20;49.10
22714;DHT22;11524;50.846;4.326;2023-06-22T05:53:47;27.20;49.10
22714;DHT22;11524;50.846;4.326;2023-06-22T05:56:15;27.20;49.20
22714;DHT22;11524;50.846;4.326;2023-06-22T05:58:41;27.20;49.40
22714;DHT22;11524;50.846;4.326;2023-06-22T06:01:07;27.20;49.50
22714;DHT22;11524;50.846;4.326;2023-06-22T06:03:32;27.20;49.60
22714;DHT22;11524;50.846;4.326;2023-06-22T06:05:58;26.70;51.40
22714;DHT22;11524;50.846;4.326;2023-06-22T06:08:23;26.00;52.90
22714;DHT22;11524;50.846;4.326;2023-06-22T06:10:49;25.70;53.50
22714;DHT22;11524;50.846;4.326;2023-06-22T06:13:15;25.80;51.80
22714;DHT22;11524;50.846;4.326;2023-06-22T06:15:40;26.00;51.60
22714;DHT22;11524;50.846;4.326;2023-06-22T06:18:06;26.20;51.40
22714;DHT22;11524;50.846;4.326;2023-06-22T06:20:32;26.30;50.90
22714;DHT22;11524;50.846;4.326;2023-06-22T06:22:58;26.40;51.00
22714;DHT22;11524;50.846;4.326;2023-06-22T06:25:24;26.50;50.50
22714;DHT22;11524;50.846;4.326;2023-06-22T06:27:51;26.70;50.70
22714;DHT22;11524;50.846;4.326;2023-06-22T06:30:18;26.70;50.20
22714;DHT22;11524;50.846;4.326;2023-06-22T06:32:44;26.80;50.10
22714;DHT22;11524;50.846;4.326;2023-06-22T06:35:14;26.90;50.30
22714;DHT22;11524;50.846;4.326;2023-06-22T06:37:42;26.90;50.40
22714;DHT22;11524;50.846;4.326;2023-06-22T06:40:10;26.90;50.10
22714;DHT22;11524;50.846;4.326;2023-06-22T06:42:43;27.00;50.00
22714;DHT22;11524;50.846;4.326;2023-06-22T06:45:17;27.00;50.10
22714;DHT22;11524;50.846;4.326;2023-06-22T06:47:43;27.00;50.10
22714;DHT22;11524;50.846;4.326;2023-06-22T06:50:09;27.00;49.80
22714;DHT22;11524;50.846;4.326;2023-06-22T06:52:35;27.00;48.90
22714;DHT22;11524;50.846;4.326;2023-06-22T06:55:01;27.00;49.50
22714;DHT22;11524;50.846;4.326;2023-06-22T06:57:29;27.00;49.80
22714;DHT22;11524;50.846;4.326;2023-06-22T06:59:58;27.10;50.10
22714;DHT22;11524;50.846;4.326;2023-06-22T07:02:25;27.10;49.90
22714;DHT22;11524;50.846;4.326;2023-06-22T07:04:51;27.10;50.00
22714;DHT22;11524;50.846;4.326;2023-06-22T07:07:17;27.10;49.60
22714;DHT22;11524;50.846;4.326;2023-06-22T07:09:42;27.10;49.80
22714;DHT22;11524;50.846;4.326;2023-06-22T07:12:08;27.20;49.60
22714;DHT22;11524;50.846;4.326;2023-06-22T07:14:34;27.20;49.50
22714;DHT22;11524;50.846;4.326;2023-06-22T07:16:59;27.20;50.10
22714;DHT22;11524;50.846;4.326;2023-06-22T07:19:26;27.20;49.20
22714;DHT22;11524;50.846;4.326;2023-06-22T07:21:52;27.20;49.40
22714;DHT22;11524;50.846;4.326;2023-06-22T07:24:19;27.20;49.30
22714;DHT22;11524;50.846;4.326;2023-06-22T07:26:48;27.20;49.50
22714;DHT22;11524;50.846;4.326;2023-06-22T07:29:16;27.30;49.40
22714;DHT22;11524;50.846;4.326;2023-06-22T07:31:42;27.30;49.40
22714;DHT22;11524;50.846;4.326;2023-06-22T07:34:08;27.30;49.20
22714;DHT22;11524;50.846;4.326;2023-06-22T07:36:34;27.30;49.30
22714;DHT22;11524;50.846;4.326;2023-06-22T07:39:01;27.30;50.20
22714;DHT22;11524;50.846;4.326;2023-06-22T07:41:28;27.40;49.80
22714;DHT22;11524;50.846;4.326;2023-06-22T07:43:54;27.40;49.80
22714;DHT22;11524;50.846;4.326;2023-06-22T07:46:19;27.50;49.90
22714;DHT22;11524;50.846;4.326;2023-06-22T07:48:45;27.40;49.70
22714;DHT22;11524;50.846;4.326;2023-06-22T07:51:11;27.50;49.70
22714;DHT22;11524;50.846;4.326;2023-06-22T07:53:43;27.50;49.60
22714;DHT22;11524;50.846;4.326;2023-06-22T07:56:13;27.50;49.60
22714;DHT22;11524;50.846;4.326;2023-06-22T07:58:39;27.40;49.40
22714;DHT22;11524;50.846;4.326;2023-06-22T08:01:05;27.50;49.40
22714;DHT22;11524;50.846;4.326;2023-06-22T08:03:31;27.50;49.40
22714;DHT22;11524;50.846;4.326;2023-06-22T08:05:57;27.50;49.40
22714;DHT22;11524;50.846;4.326;2023-06-22T08:08:23;27.50;49.40
22714;DHT22;11524;50.846;4.326;2023-06-22T08:10:49;27.50;49.40
22714;DHT22;11524;50.846;4.326;2023-06-22T08:13:15;27.50;49.40
22714;DHT22;11524;50.846;4.326;2023-06-22T08:15:40;27.50;49.40
22714;DHT22;11524;50.846;4.326;2023-06-22T08:18:06;27.50;49.40
22714;DHT22;11524;50.846;4.326;2023-06-22T08:20:31;27.50;49.30
22714;DHT22;11524;50.846;4.326;2023-06-22T08:22:58;27.50;49.30
22714;DHT22;11524;50.846;4.326;2023-06-22T08:25:30;27.50;49.30
22714;DHT22;11524;50.846;4.326;2023-06-22T08:27:56;27.40;49.30
22714;DHT22;11524;50.846;4.326;2023-06-22T08:30:21;27.50;49.10
22714;DHT22;11524;50.846;4.326;2023-06-22T08:32:47;27.60;49.10
22714;DHT22;11524;50.846;4.326;2023-06-22T08:35:12;27.60;48.80
22714;DHT22;11524;50.846;4.326;2023-06-22T08:37:38;27.60;48.80
22714;DHT22;11524;50.846;4.326;2023-06-22T08:40:06;27.70;48.90
22714;DHT22;11524;50.846;4.326;2023-06-22T08:42:33;27.70;48.70
22714;DHT22;11524;50.846;4.326;2023-06-22T08:44:59;27.70;48.70
22714;DHT22;11524;50.846;4.326;2023-06-22T08:47:25;27.70;48.80
22714;DHT22;11524;50.846;4.326;2023-06-22T08:49:50;27.70;48.90
22714;DHT22;11524;50.846;4.326;2023-06-22T08:52:17;27.70;48.80
22714;DHT22;11524;50.846;4.326;2023-06-22T08:54:45;27.70;48.80
22714;DHT22;11524;50.846;4.326;2023-06-22T08:57:11;27.70;48.70
22714;DHT22;11524;50.846;4.326;2023-06-22T08:59:36;27.70;48.80
22714;DHT22;11524;50.846;4.326;2023-06-22T09:02:02;27.70;48.80
22714;DHT22;11524;50.846;4.326;2023-06-22T09:04:27;27.80;48.80
22714;DHT22;11524;50.846;4.326;2023-06-22T09:06:53;27.80;48.90
22714;DHT22;11524;50.846;4.326;2023-06-22T09:09:20;27.80;48.80
22714;DHT22;11524;50.846;4.326;2023-06-22T09:11:46;27.80;48.80
22714;DHT22;11524;50.846;4.326;2023-06-22T09:14:12;27.90;48.90
22714;DHT22;11524;50.846;4.326;2023-06-22T09:16:38;27.90;48.90
22714;DHT22;11524;50.846;4.326;2023-06-22T09:19:04;27.90;48.90
22714;DHT22;11524;50.846;4.326;2023-06-22T09:21:29;27.90;48.90
22714;DHT22;11524;50.846;4.326;2023-06-22T09:23:55;27.80;48.90
22714;DHT22;11524;50.846;4.326;2023-06-22T09:26:21;27.80;48.90
22714;DHT22;11524;50.846;4.326;2023-06-22T09:28:48;27.90;49.10
22714;DHT22;11524;50.846;4.326;2023-06-22T09:31:13;27.80;48.90
22714;DHT22;11524;50.846;4.326;2023-06-22T09:33:40;27.80;49.10
22714;DHT22;11524;50.846;4.326;2023-06-22T09:36:06;27.80;49.30
22714;DHT22;11524;50.846;4.326;2023-06-22T09:38:36;27.80;49.10
22714;DHT22;11524;50.846;4.326;2023-06-22T09:41:02;27.80;49.20
22714;DHT22;11524;50.846;4.326;2023-06-22T09:43:28;27.80;49.50
22714;DHT22;11524;50.846;4.326;2023-06-22T09:45:54;27.80;49.60
22714;DHT22;11524;50.846;4.326;2023-06-22T09:48:19;27.80;49.70
22714;DHT22;11524;50.846;4.326;2023-06-22T09:50:45;27.70;50.00
22714;DHT22;11524;50.846;4.326;2023-06-22T09:53:11;27.70;50.10
22714;DHT22;11524;50.846;4.326;2023-06-22T09:55:36;27.70;50.30
22714;DHT22;11524;50.846;4.326;2023-06-22T09:58:02;27.60;50.30
22714;DHT22;11524;50.846;4.326;2023-06-22T10:00:27;27.60;50.60
22714;DHT22;11524;50.846;4.326;2023-06-22T10:02:53;27.50;50.50
22714;DHT22;11524;50.846;4.326;2023-06-22T10:05:19;27.50;50.50
22714;DHT22;11524;50.846;4.326;2023-06-22T10:07:44;27.50;50.60
22714;DHT22;11524;50.846;4.326;2023-06-22T10:10:11;27.50;50.70
22714;DHT22;11524;50.846;4.326;2023-06-22T10:12:42;27.40;50.80
22714;DHT22;11524;50.846;4.326;2023-06-22T10:15:08;27.40;51.00
22714;DHT22;11524;50.846;4.326;2023-06-22T10:17:34;27.40;51.10
22714;DHT22;11524;50.846;4.326;2023-06-22T10:20:00;27.40;51.20
22714;DHT22;11524;50.846;4.326;2023-06-22T10:22:30;27.40;51.30
22714;DHT22;11524;50.846;4.326;2023-06-22T10:24:56;27.40;51.40
22714;DHT22;11524;50.846;4.326;2023-06-22T10:27:21;27.40;51.70
22714;DHT22;11524;50.846;4.326;2023-06-22T10:29:47;27.30;51.70
22714;DHT22;11524;50.846;4.326;2023-06-22T10:32:12;27.40;51.90
22714;DHT22;11524;50.846;4.326;2023-06-22T10:34:38;27.40;52.00
22714;DHT22;11524;50.846;4.326;2023-06-22T10:37:04;27.30;52.10
22714;DHT22;11524;50.846;4.326;2023-06-22T10:39:29;27.30;52.00
22714;DHT22;11524;50.846;4.326;2023-06-22T10:41:55;27.30;52.00
22714;DHT22;11524;50.846;4.326;2023-06-22T10:44:21;27.30;52.20
22714;DHT22;11524;50.846;4.326;2023-06-22T10:46:47;27.30;52.30
22714;DHT22;11524;50.846;4.326;2023-06-22T10:49:19;27.20;52.20
22714;DHT22;11524;50.846;4.326;2023-06-22T10:51:44;27.20;52.10
22714;DHT22;11524;50.846;4.326;2023-06-22T10:54:13;27.20;52.20
22714;DHT22;11524;50.846;4.326;2023-06-22T10:56:40;27.20;52.10
22714;DHT22;11524;50.846;4.326;2023-06-22T10:59:05;27.20;52.10
22714;DHT22;11524;50.846;4.326;2023-06-22T11:01:31;27.20;52.10
22714;DHT22;11524;50.846;4.326;2023-06-22T11:03:58;27.20;52.10
22714;DHT22;11524;50.846;4.326;2023-06-22T11:06:24;27.20;52.10
22714;DHT22;11524;50.846;4.326;2023-06-22T11:08:49;27.20;52.10
22714;DHT22;11524;50.846;4.326;2023-06-22T11:11:15;27.20;52.30
22714;DHT22;11524;50.846;4.326;2023-06-22T11:13:43;27.10;52.20
22714;DHT22;11524;50.846;4.326;2023-06-22T11:16:10;27.20;52.60
22714;DHT22;11524;50.846;4.326;2023-06-22T11:18:36;27.10;52.40
22714;DHT22;11524;50.846;4.326;2023-06-22T11:21:01;27.10;52.30
22714;DHT22;11524;50.846;4.326;2023-06-22T11:23:27;27.10;52.40
22714;DHT22;11524;50.846;4.326;2023-06-22T11:25:54;27.10;52.50
22714;DHT22;11524;50.846;4.326;2023-06-22T11:28:19;27.10;52.70
22714;DHT22;11524;50.846;4.326;2023-06-22T11:30:45;27.10;52.70
22714;DHT22;11524;50.846;4.326;2023-06-22T11:33:11;27.10;52.70
22714;DHT22;11524;50.846;4.326;2023-06-22T11:35:36;27.10;52.70
22714;DHT22;11524;50.846;4.326;2023-06-22T11:38:02;27.00;52.80
22714;DHT22;11524;50.846;4.326;2023-06-22T11:40:29;27.00;52.70
22714;DHT22;11524;50.846;4.326;2023-06-22T11:42:56;27.00;52.80
22714;DHT22;11524;50.846;4.326;2023-06-22T11:45:22;27.00;52.90
22714;DHT22;11524;50.846;4.326;2023-06-22T11:47:47;27.00;52.80
22714;DHT22;11524;50.846;4.326;2023-06-22T11:50:13;27.00;52.80
22714;DHT22;11524;50.846;4.326;2023-06-22T11:52:38;27.00;52.80
22714;DHT22;11524;50.846;4.326;2023-06-22T11:55:05;27.00;52.90
22714;DHT22;11524;50.846;4.326;2023-06-22T11:57:36;27.00;52.80
22714;DHT22;11524;50.846;4.326;2023-06-22T12:00:05;27.00;52.90
22714;DHT22;11524;50.846;4.326;2023-06-22T12:02:39;26.90;52.80
22714;DHT22;11524;50.846;4.326;2023-06-22T12:05:05;26.90;52.70
22714;DHT22;11524;50.846;4.326;2023-06-22T12:07:30;27.00;52.90
22714;DHT22;11524;50.846;4.326;2023-06-22T12:09:56;26.90;52.80
22714;DHT22;11524;50.846;4.326;2023-06-22T12:12:22;26.90;52.90
22714;DHT22;11524;50.846;4.326;2023-06-22T12:14:47;26.90;52.80
22714;DHT22;11524;50.846;4.326;2023-06-22T12:17:13;26.90;53.00
22714;DHT22;11524;50.846;4.326;2023-06-22T12:19:38;26.90;53.00
22714;DHT22;11524;50.846;4.326;2023-06-22T12:22:04;26.90;53.00
22714;DHT22;11524;50.846;4.326;2023-06-22T12:24:30;26.90;53.00
22714;DHT22;11524;50.846;4.326;2023-06-22T12:26:55;26.90;53.10
22714;DHT22;11524;50.846;4.326;2023-06-22T12:29:21;26.90;53.00
22714;DHT22;11524;50.846;4.326;2023-06-22T12:31:46;26.90;53.20
22714;DHT22;11524;50.846;4.326;2023-06-22T12:34:12;26.80;53.10
22714;DHT22;11524;50.846;4.326;2023-06-22T12:36:38;26.80;53.10
22714;DHT22;11524;50.846;4.326;2023-06-22T12:39:05;26.90;53.20
22714;DHT22;11524;50.846;4.326;2023-06-22T12:41:30;26.80;53.10
22714;DHT22;11524;50.846;4.326;2023-06-22T12:43:56;26.80;53.10
22714;DHT22;11524;50.846;4.326;2023-06-22T12:46:22;26.80;53.10
22714;DHT22;11524;50.846;4.326;2023-06-22T12:48:47;26.80;53.10
22714;DHT22;11524;50.846;4.326;2023-06-22T12:51:21;26.80;53.10
22714;DHT22;11524;50.846;4.326;2023-06-22T12:53:47;26.80;53.10
22714;DHT22;11524;50.846;4.326;2023-06-22T12:56:13;26.80;53.10
22714;DHT22;11524;50.846;4.326;2023-06-22T12:58:38;26.80;53.10
22714;DHT22;11524;50.846;4.326;2023-06-22T13:01:04;26.80;53.20
22714;DHT22;11524;50.846;4.326;2023-06-22T13:03:29;26.80;53.10
22714;DHT22;11524;50.846;4.326;2023-06-22T13:05:55;26.80;53.30
22714;DHT22;11524;50.846;4.326;2023-06-22T13:08:21;26.70;53.20
22714;DHT22;11524;50.846;4.326;2023-06-22T13:10:46;26.80;53.40
22714;DHT22;11524;50.846;4.326;2023-06-22T13:13:12;26.70;53.30
22714;DHT22;11524;50.846;4.326;2023-06-22T13:15:37;26.70;53.30
22714;DHT22;11524;50.846;4.326;2023-06-22T13:18:03;26.70;53.30
22714;DHT22;11524;50.846;4.326;2023-06-22T13:20:29;26.70;53.50
22714;DHT22;11524;50.846;4.326;2023-06-22T13:22:55;26.70;53.80
22714;DHT22;11524;50.846;4.326;2023-06-22T13:25:21;26.70;53.80
22714;DHT22;11524;50.846;4.326;2023-06-22T13:27:49;26.70;54.00
22714;DHT22;11524;50.846;4.326;2023-06-22T13:30:15;26.70;54.00
22714;DHT22;11524;50.846;4.326;2023-06-22T13:32:41;26.70;54.20
22714;DHT22;11524;50.846;4.326;2023-06-22T13:35:10;26.70;54.30
22714;DHT22;11524;50.846;4.326;2023-06-22T13:37:36;26.70;54.30
22714;DHT22;11524;50.846;4.326;2023-06-22T13:40:02;26.70;54.10
22714;DHT22;11524;50.846;4.326;2023-06-22T13:42:30;26.70;54.00
22714;DHT22;11524;50.846;4.326;2023-06-22T13:44:56;26.70;54.10
22714;DHT22;11524;50.846;4.326;2023-06-22T13:47:22;26.70;54.10
22714;DHT22;11524;50.846;4.326;2023-06-22T13:49:47;26.70;54.00
22714;DHT22;11524;50.846;4.326;2023-06-22T13:52:13;26.70;54.10
22714;DHT22;11524;50.846;4.326;2023-06-22T13:54:38;26.70;54.20
22714;DHT22;11524;50.846;4.326;2023-06-22T13:57:04;26.70;54.40
22714;DHT22;11524;50.846;4.326;2023-06-22T13:59:30;26.70;54.30
22714;DHT22;11524;50.846;4.326;2023-06-22T14:01:56;26.70;54.30
22714;DHT22;11524;50.846;4.326;2023-06-22T14:04:23;26.70;54.30
22714;DHT22;11524;50.846;4.326;2023-06-22T14:06:49;26.70;54.30
22714;DHT22;11524;50.846;4.326;2023-06-22T14:09:15;26.70;54.30
22714;DHT22;11524;50.846;4.326;2023-06-22T14:11:40;26.60;54.30
22714;DHT22;11524;50.846;4.326;2023-06-22T14:14:06;26.70;54.80
22714;DHT22;11524;50.846;4.326;2023-06-22T14:16:39;26.60;54.20
22714;DHT22;11524;50.846;4.326;2023-06-22T14:19:05;26.70;54.30
22714;DHT22;11524;50.846;4.326;2023-06-22T14:21:35;26.60;54.30
22714;DHT22;11524;50.846;4.326;2023-06-22T14:24:01;26.60;54.30
22714;DHT22;11524;50.846;4.326;2023-06-22T14:26:26;26.60;54.40
22714;DHT22;11524;50.846;4.326;2023-06-22T14:28:55;26.60;54.40
22714;DHT22;11524;50.846;4.326;2023-06-22T14:31:22;26.60;54.70
22714;DHT22;11524;50.846;4.326;2023-06-22T14:33:49;26.60;55.00
22714;DHT22;11524;50.846;4.326;2023-06-22T14:36:16;26.70;55.20
22714;DHT22;11524;50.846;4.326;2023-06-22T14:38:43;26.60;55.10
22714;DHT22;11524;50.846;4.326;2023-06-22T14:41:09;26.60;55.30
22714;DHT22;11524;50.846;4.326;2023-06-22T14:43:35;26.60;55.10
22714;DHT22;11524;50.846;4.326;2023-06-22T14:46:00;26.60;55.40
22714;DHT22;11524;50.846;4.326;2023-06-22T14:48:26;26.60;55.10
22714;DHT22;11524;50.846;4.326;2023-06-22T14:50:52;26.70;55.80
22714;DHT22;11524;50.846;4.326;2023-06-22T14:53:19;26.70;55.80
22714;DHT22;11524;50.846;4.326;2023-06-22T14:55:45;26.80;56.00
22714;DHT22;11524;50.846;4.326;2023-06-22T14:58:11;26.80;55.90
22714;DHT22;11524;50.846;4.326;2023-06-22T15:00:37;26.80;55.90
22714;DHT22;11524;50.846;4.326;2023-06-22T15:03:06;26.80;55.80
22714;DHT22;11524;50.846;4.326;2023-06-22T15:05:33;26.80;55.60
22714;DHT22;11524;50.846;4.326;2023-06-22T15:07:59;26.80;55.70
22714;DHT22;11524;50.846;4.326;2023-06-22T15:10:24;26.90;55.80
22714;DHT22;11524;50.846;4.326;2023-06-22T15:12:58;26.90;55.70
22714;DHT22;11524;50.846;4.326;2023-06-22T15:15:24;26.90;55.60
22714;DHT22;11524;50.846;4.326;2023-06-22T15:17:50;26.90;55.60
22714;DHT22;11524;50.846;4.326;2023-06-22T15:20:15;26.80;55.50
22714;DHT22;11524;50.846;4.326;2023-06-22T15:22:44;26.90;55.50
22714;DHT22;11524;50.846;4.326;2023-06-22T15:25:12;26.90;55.70
22714;DHT22;11524;50.846;4.326;2023-06-22T15:27:40;26.90;55.70
22714;DHT22;11524;50.846;4.326;2023-06-22T15:30:06;26.80;55.60
22714;DHT22;11524;50.846;4.326;2023-06-22T15:32:35;26.80;55.60